Time;durP1;ratioP1;P1;durP2;ratioP2;P2;SDS_P1;SDS_P2;PMS_P1;PMS_P2;Temp;Humidity;BMP_temperature;BMP_pressure;BME280_temperature;BME280_humidity;BME280_pressure;Samples;Min_cycle;Max_cycle;Signal;HPM_P1;HPM_P2
2023/12/08 00:01:21;;;;;;;4.07;3.60;;;15.00;81.40;;;;;;4988123;28;20203;-89
2023/12/08 00:03:47;;;;;;;4.30;3.40;;;15.00;81.70;;;;;;4990948;28;20524;-89
2023/12/08 00:06:13;;;;;;;3.80;3.50;;;15.00;82.00;;;;;;4986027;28;20172;-90
2023/12/08 00:08:40;;;;;;;4.33;3.60;;;14.90;82.00;;;;;;4994198;28;20276;-89
2023/12/08 00:11:07;;;;;;;4.33;3.77;;;15.00;81.60;;;;;;4977257;28;20190;-90
2023/12/08 00:13:34;;;;;;;4.93;3.40;;;14.90;81.70;;;;;;4978121;28;20231;-90
2023/12/08 00:16:00;;;;;;;4.57;3.70;;;15.00;81.50;;;;;;4988631;28;20186;-89
2023/12/08 00:18:25;;;;;;;3.40;3.10;;;15.10;81.40;;;;;;4977208;28;20176;-89
2023/12/08 00:20:51;;;;;;;4.93;3.23;;;15.10;81.30;;;;;;4988877;28;20203;-89
2023/12/08 00:23:17;;;;;;;5.17;3.80;;;15.30;80.70;;;;;;4976380;28;20183;-90
2023/12/08 00:25:43;;;;;;;4.53;3.20;;;15.30;80.30;;;;;;4988435;28;20242;-89
2023/12/08 00:28:09;;;;;;;4.03;3.27;;;15.40;79.20;;;;;;4976996;28;20187;-90
2023/12/08 00:30:35;;;;;;;3.50;3.07;;;15.50;78.30;;;;;;4985309;28;20175;-89
2023/12/08 00:33:02;;;;;;;3.83;3.40;;;15.60;78.10;;;;;;4976381;28;20255;-89
2023/12/08 00:35:28;;;;;;;3.97;2.97;;;15.70;77.20;;;;;;4984768;28;20171;-90
2023/12/08 00:37:54;;;;;;;5.70;3.40;;;15.80;76.60;;;;;;4979998;28;20458;-89
2023/12/08 00:40:20;;;;;;;3.43;2.80;;;15.80;76.20;;;;;;4981484;28;20167;-90
2023/12/08 00:42:47;;;;;;;4.17;3.30;;;15.90;75.50;;;;;;4982989;28;20204;-90
2023/12/08 00:45:14;;;;;;;4.50;3.37;;;15.90;75.60;;;;;;4977730;28;20172;-89
2023/12/08 00:47:40;;;;;;;4.23;3.40;;;15.90;75.50;;;;;;4987970;28;20253;-89
2023/12/08 00:50:07;;;;;;;5.13;3.00;;;15.80;75.20;;;;;;4991162;28;20282;-89
2023/12/08 00:52:36;;;;;;;3.20;2.80;;;15.90;75.20;;;;;;4986830;28;20182;-89
2023/12/08 00:55:02;;;;;;;3.57;3.00;;;15.80;75.30;;;;;;4977517;28;20199;-89
2023/12/08 00:57:27;;;;;;;3.30;2.80;;;15.90;75.20;;;;;;4986903;28;20172;-90
2023/12/08 00:59:53;;;;;;;4.23;3.10;;;15.90;74.70;;;;;;4976375;28;20190;-89
2023/12/08 01:02:19;;;;;;;3.70;2.80;;;15.90;74.80;;;;;;4986937;28;20219;-90
2023/12/08 01:04:45;;;;;;;3.73;3.30;;;15.80;74.80;;;;;;4976184;28;20171;-89
2023/12/08 01:07:11;;;;;;;3.30;3.00;;;15.90;75.00;;;;;;4987375;28;20476;-90
2023/12/08 01:09:37;;;;;;;2.83;2.63;;;15.90;74.20;;;;;;4975279;28;20557;-89
2023/12/08 01:12:03;;;;;;;3.40;2.80;;;15.80;75.20;;;;;;4986135;28;20187;-89
2023/12/08 01:14:29;;;;;;;3.83;2.90;;;15.80;75.00;;;;;;4976495;28;20707;-90
2023/12/08 01:16:55;;;;;;;3.77;2.83;;;15.90;74.70;;;;;;4982561;28;20239;-89
2023/12/08 01:19:20;;;;;;;3.00;2.70;;;15.90;74.70;;;;;;4977610;28;20178;-89
2023/12/08 01:21:46;;;;;;;2.93;2.60;;;15.90;74.90;;;;;;4980530;28;20492;-89
2023/12/08 01:24:12;;;;;;;3.77;2.93;;;15.90;74.50;;;;;;4978889;28;20174;-89
2023/12/08 01:26:43;;;;;;;4.77;3.07;;;15.90;74.30;;;;;;4977217;28;20163;-89
2023/12/08 01:29:09;;;;;;;3.23;2.93;;;15.90;74.30;;;;;;4983139;28;20287;-89
2023/12/08 01:31:34;;;;;;;3.40;2.83;;;15.90;74.40;;;;;;4989261;28;20393;-90
2023/12/08 01:34:00;;;;;;;3.43;3.00;;;15.80;74.10;;;;;;4981939;28;20253;-89
2023/12/08 01:36:26;;;;;;;3.07;2.63;;;15.80;74.30;;;;;;4989493;28;20171;-90
2023/12/08 01:38:53;;;;;;;3.10;2.70;;;15.80;74.20;;;;;;4981459;28;20324;-90
2023/12/08 01:41:19;;;;;;;5.57;2.80;;;15.70;74.90;;;;;;4992305;28;20216;-89
2023/12/08 01:43:45;;;;;;;5.10;2.87;;;15.80;74.40;;;;;;4989299;28;20163;-89
2023/12/08 01:46:19;;;;;;;4.10;2.80;;;15.70;73.20;;;;;;4974708;28;20221;-89
2023/12/08 01:48:46;;;;;;;3.20;2.60;;;15.60;74.70;;;;;;4985931;28;20210;-89
2023/12/08 01:51:15;;;;;;;2.77;2.53;;;15.40;75.40;;;;;;4974296;28;20186;-89
2023/12/08 01:53:41;;;;;;;3.90;2.70;;;15.60;74.90;;;;;;4986733;28;20174;-89
2023/12/08 01:56:08;;;;;;;3.63;2.80;;;15.60;74.50;;;;;;4975169;28;20172;-90
2023/12/08 01:58:35;;;;;;;2.77;2.43;;;15.80;74.40;;;;;;4985913;28;20508;-89
2023/12/08 02:01:04;;;;;;;3.40;2.43;;;15.90;73.90;;;;;;4975231;28;20214;-89
2023/12/08 02:03:33;;;;;;;2.60;2.23;;;15.90;73.40;;;;;;4975182;28;20173;-89
2023/12/08 02:06:00;;;;;;;3.17;2.67;;;15.90;73.70;;;;;;4989535;28;20393;-89
2023/12/08 02:08:27;;;;;;;2.77;2.37;;;15.90;73.60;;;;;;4982845;28;20175;-89
2023/12/08 02:10:54;;;;;;;3.20;2.80;;;15.80;73.60;;;;;;4984164;28;20281;-89
2023/12/08 02:13:23;;;;;;;3.33;2.80;;;15.80;73.70;;;;;;4991001;28;20488;-89
2023/12/08 02:15:55;;;;;;;2.53;2.33;;;15.70;73.90;;;;;;4979094;28;20186;-89
2023/12/08 02:18:21;;;;;;;3.33;2.40;;;15.70;74.00;;;;;;4973196;28;20483;-89
2023/12/08 02:20:47;;;;;;;2.93;2.27;;;15.70;74.00;;;;;;4983814;28;20174;-89
2023/12/08 02:23:14;;;;;;;2.60;2.40;;;15.70;73.90;;;;;;4991336;28;20170;-89
2023/12/08 02:25:39;;;;;;;3.20;2.33;;;15.70;74.20;;;;;;4980798;28;20184;-89
2023/12/08 02:28:07;;;;;;;3.03;2.60;;;15.70;74.10;;;;;;4990114;28;20808;-89
2023/12/08 02:30:33;;;;;;;2.30;2.10;;;15.70;74.30;;;;;;4985538;28;20286;-89
2023/12/08 02:33:12;;;;;;;2.97;2.30;;;15.70;73.90;;;;;;4975627;28;20199;-89
2023/12/08 02:35:40;;;;;;;3.13;2.30;;;15.70;74.20;;;;;;4991835;28;20166;-88
2023/12/08 02:38:08;;;;;;;2.83;2.23;;;15.80;74.10;;;;;;4994430;28;20310;-89
2023/12/08 02:40:35;;;;;;;2.93;2.20;;;15.80;74.00;;;;;;4990231;28;20266;-89
2023/12/08 02:43:02;;;;;;;2.83;2.27;;;15.80;73.80;;;;;;4975502;28;20174;-89
2023/12/08 02:45:28;;;;;;;3.30;2.50;;;15.60;75.00;;;;;;4986556;28;20389;-89
2023/12/08 02:47:54;;;;;;;2.33;2.10;;;15.70;74.70;;;;;;4974488;28;20176;-89
2023/12/08 02:50:19;;;;;;;2.63;2.27;;;15.70;74.40;;;;;;4985923;28;20182;-89
2023/12/08 02:52:45;;;;;;;2.73;2.20;;;15.60;73.90;;;;;;4977301;28;20508;-89
2023/12/08 02:55:11;;;;;;;2.10;1.90;;;15.40;75.70;;;;;;4988551;28;20170;-89
2023/12/08 02:57:37;;;;;;;2.93;2.50;;;15.50;75.70;;;;;;4982273;28;20516;-89
2023/12/08 03:00:04;;;;;;;2.97;2.50;;;15.50;75.10;;;;;;4983833;28;20197;-88
2023/12/08 03:02:29;;;;;;;2.37;2.10;;;15.60;75.00;;;;;;4985100;28;20305;-89
2023/12/08 03:04:55;;;;;;;5.07;2.00;;;15.50;74.60;;;;;;4982559;28;20271;-89
2023/12/08 03:07:21;;;;;;;2.37;2.17;;;15.50;75.00;;;;;;4986964;28;20186;-90
2023/12/08 03:09:48;;;;;;;2.87;2.20;;;15.60;73.20;;;;;;4978249;28;20181;-89
2023/12/08 03:12:14;;;;;;;2.30;2.10;;;15.60;74.30;;;;;;5003416;28;20219;-89
2023/12/08 03:14:39;;;;;;;2.97;2.20;;;15.70;73.90;;;;;;4996021;28;20175;-89
2023/12/08 03:17:05;;;;;;;2.97;2.10;;;15.50;73.10;;;;;;4985320;28;20177;-89
2023/12/08 03:19:31;;;;;;;3.57;2.37;;;15.50;74.20;;;;;;4996711;28;20181;-89
2023/12/08 03:21:57;;;;;;;2.63;2.30;;;15.60;73.80;;;;;;4984208;28;20192;-89
2023/12/08 03:24:23;;;;;;;2.50;2.30;;;15.70;73.30;;;;;;4996648;28;20179;-89
2023/12/08 03:26:49;;;;;;;2.93;2.23;;;15.70;73.10;;;;;;4984095;28;20206;-90
2023/12/08 03:29:15;;;;;;;2.60;2.30;;;15.80;72.90;;;;;;4996604;28;20565;-90
2023/12/08 03:31:41;;;;;;;3.13;2.37;;;15.80;72.80;;;;;;4984899;28;20245;-90
2023/12/08 03:34:07;;;;;;;4.60;2.30;;;15.60;72.10;;;;;;4995854;28;20174;-89
2023/12/08 03:36:33;;;;;;;2.93;2.40;;;15.60;72.80;;;;;;4987540;28;20238;-89
2023/12/08 03:38:59;;;;;;;2.80;2.50;;;15.60;72.90;;;;;;4993729;28;20574;-89
2023/12/08 03:41:24;;;;;;;2.43;2.17;;;15.60;73.60;;;;;;4990346;28;20484;-90
2023/12/08 03:43:51;;;;;;;2.50;2.10;;;15.60;72.30;;;;;;4989877;28;20426;-90
2023/12/08 03:46:16;;;;;;;2.53;2.33;;;15.50;72.90;;;;;;4991154;28;20178;-90
2023/12/08 03:48:43;;;;;;;2.60;2.40;;;15.50;72.90;;;;;;4987655;28;20250;-90
2023/12/08 03:51:08;;;;;;;2.37;2.07;;;15.50;72.10;;;;;;4995192;28;20178;-89
2023/12/08 03:53:34;;;;;;;2.33;2.10;;;15.60;72.80;;;;;;4988617;28;20193;-90
2023/12/08 03:56:00;;;;;;;2.73;2.20;;;15.50;71.80;;;;;;4977990;28;20571;-90
2023/12/08 03:58:28;;;;;;;2.87;2.10;;;15.60;72.70;;;;;;4987689;28;20276;-89
2023/12/08 04:00:53;;;;;;;4.47;2.17;;;15.60;71.50;;;;;;4976151;28;20265;-90
2023/12/08 04:03:20;;;;;;;3.00;2.10;;;15.50;72.70;;;;;;4987642;28;20181;-90
2023/12/08 04:05:45;;;;;;;2.17;1.90;;;15.60;72.10;;;;;;4974968;28;20182;-89
2023/12/08 04:08:12;;;;;;;2.37;2.13;;;15.60;71.90;;;;;;4988668;28;20576;-90
2023/12/08 04:10:38;;;;;;;2.63;2.23;;;15.50;71.70;;;;;;4976859;28;20457;-89
2023/12/08 04:13:04;;;;;;;2.60;2.30;;;15.40;72.80;;;;;;4987186;28;20184;-90
2023/12/08 04:15:29;;;;;;;2.43;2.00;;;15.30;72.80;;;;;;4977349;28;20190;-89
2023/12/08 04:17:56;;;;;;;2.07;1.90;;;15.20;74.00;;;;;;4983623;28;20170;-90
2023/12/08 04:20:22;;;;;;;3.43;2.00;;;15.10;74.50;;;;;;4977509;28;20501;-90
2023/12/08 04:22:48;;;;;;;3.17;2.10;;;15.00;75.00;;;;;;4980018;28;20249;-90
2023/12/08 04:25:14;;;;;;;2.30;2.00;;;14.90;75.70;;;;;;4980051;28;20270;-89
2023/12/08 04:27:41;;;;;;;1.83;1.70;;;14.80;76.60;;;;;;4978228;28;20282;-90
2023/12/08 04:30:07;;;;;;;2.50;2.00;;;14.60;77.70;;;;;;4983375;28;20177;-90
2023/12/08 04:32:34;;;;;;;2.80;2.13;;;14.60;78.90;;;;;;4976065;28;20189;-89
2023/12/08 04:35:00;;;;;;;2.10;1.90;;;15.10;78.20;;;;;;4986188;28;20234;-90
2023/12/08 04:37:27;;;;;;;2.10;1.80;;;16.20;72.50;;;;;;4977698;28;20178;-90
2023/12/08 04:39:53;;;;;;;2.13;1.83;;;16.90;68.40;;;;;;4983518;28;20250;-89
2023/12/08 04:42:19;;;;;;;3.47;1.93;;;17.30;65.70;;;;;;4993703;28;20206;-89
2023/12/08 04:44:44;;;;;;;2.47;1.80;;;17.80;62.90;;;;;;4981392;28;20170;-90
2023/12/08 04:47:11;;;;;;;1.93;1.83;;;17.90;62.20;;;;;;4994183;28;20262;-90
2023/12/08 04:49:36;;;;;;;2.00;1.77;;;18.00;61.30;;;;;;4981294;28;20233;-89
2023/12/08 04:52:02;;;;;;;2.30;1.80;;;18.40;59.70;;;;;;4993843;28;20182;-90
2023/12/08 04:54:28;;;;;;;2.07;1.87;;;18.70;58.80;;;;;;4982542;28;20211;-91
2023/12/08 04:56:54;;;;;;;2.27;2.07;;;19.00;58.10;;;;;;4975932;28;20291;-91
2023/12/08 04:59:21;;;;;;;2.00;1.80;;;19.00;57.50;;;;;;4982407;28;20182;-90
2023/12/08 05:01:51;;;;;;;2.80;2.00;;;18.80;57.40;;;;;;4988299;28;20204;-91
2023/12/08 05:04:19;;;;;;;1.90;1.70;;;18.60;57.60;;;;;;4984960;28;20174;-91
2023/12/08 05:06:49;;;;;;;2.63;1.87;;;18.30;57.90;;;;;;4987465;28;20575;-92
2023/12/08 05:09:15;;;;;;;2.20;2.00;;;18.00;58.40;;;;;;4986741;28;20174;-91
2023/12/08 05:11:40;;;;;;;2.10;1.90;;;17.60;58.90;;;;;;4979380;28;20241;-91
2023/12/08 05:14:06;;;;;;;1.93;1.73;;;17.30;59.90;;;;;;4975793;28;20329;-91
2023/12/08 05:16:32;;;;;;;1.97;1.77;;;17.00;60.80;;;;;;4980106;28;20597;-92
2023/12/08 05:18:58;;;;;;;2.37;1.87;;;16.80;62.00;;;;;;4974454;28;20196;-91
2023/12/08 05:21:24;;;;;;;2.30;2.10;;;16.60;63.00;;;;;;4983717;28;20307;-91
2023/12/08 05:23:50;;;;;;;2.57;2.00;;;16.40;64.00;;;;;;4973405;28;20199;-91
2023/12/08 05:26:15;;;;;;;2.13;1.93;;;16.20;64.90;;;;;;4981700;28;20211;-91
2023/12/08 05:28:41;;;;;;;2.27;1.90;;;16.10;65.70;;;;;;4970881;28;20176;-91
2023/12/08 05:31:07;;;;;;;2.60;2.10;;;16.00;66.60;;;;;;4982883;28;20186;-91
2023/12/08 05:33:32;;;;;;;2.10;1.90;;;15.90;67.40;;;;;;4971134;28;20191;-91
2023/12/08 05:35:58;;;;;;;1.87;1.60;;;15.70;68.10;;;;;;4982606;28;20302;-91
2023/12/08 05:38:24;;;;;;;2.20;2.00;;;15.60;69.00;;;;;;4972354;28;20305;-91
2023/12/08 05:40:49;;;;;;;2.60;2.00;;;15.50;69.80;;;;;;4981695;28;20182;-91
2023/12/08 05:43:15;;;;;;;3.10;2.00;;;15.40;70.40;;;;;;4973420;28;20172;-91
2023/12/08 05:45:42;;;;;;;2.10;1.90;;;15.30;71.40;;;;;;4972415;28;20172;-91
2023/12/08 05:48:07;;;;;;;1.90;1.80;;;15.10;71.70;;;;;;4984227;28;20192;-91
2023/12/08 05:50:33;;;;;;;2.00;1.80;;;14.90;73.20;;;;;;4983481;28;20175;-91
2023/12/08 05:52:59;;;;;;;2.20;1.90;;;14.80;74.50;;;;;;4979842;28;20209;-91
2023/12/08 05:55:24;;;;;;;1.93;1.70;;;14.70;75.20;;;;;;4987457;28;20276;-91
2023/12/08 05:57:51;;;;;;;2.07;1.80;;;15.00;75.30;;;;;;4980559;28;20206;-91
2023/12/08 06:00:33;;;;;;;2.17;1.87;;;15.70;72.00;;;;;;4990148;28;20184;-90
2023/12/08 06:02:59;;;;;;;2.17;1.80;;;16.60;68.00;;;;;;4997353;28;20205;-91
2023/12/08 06:05:25;;;;;;;1.83;1.73;;;17.00;65.20;;;;;;4986610;28;20167;-91
2023/12/08 06:07:51;;;;;;;2.10;1.90;;;17.40;63.10;;;;;;4980827;28;20171;-90
2023/12/08 06:10:16;;;;;;;1.80;1.60;;;17.80;61.00;;;;;;4979532;28;20345;-91
2023/12/08 06:12:45;;;;;;;2.40;1.70;;;18.10;59.60;;;;;;4977954;28;20198;-91
2023/12/08 06:15:10;;;;;;;3.47;2.13;;;18.40;58.90;;;;;;4968731;28;20463;-91
2023/12/08 06:17:37;;;;;;;2.20;2.00;;;18.60;58.00;;;;;;4986703;28;20181;-92
2023/12/08 06:20:10;;;;;;;2.43;1.90;;;18.50;57.80;;;;;;4980114;28;20245;-91
2023/12/08 06:22:39;;;;;;;2.10;1.90;;;18.20;57.90;;;;;;4977689;28;20270;-91
2023/12/08 06:25:05;;;;;;;2.70;1.90;;;18.00;58.20;;;;;;4986730;28;20453;-91
2023/12/08 06:27:31;;;;;;;2.97;1.80;;;17.90;58.40;;;;;;4985580;28;20182;-91
2023/12/08 06:29:57;;;;;;;2.93;1.83;;;17.60;58.80;;;;;;4972620;28;20178;-90
2023/12/08 06:32:26;;;;;;;2.03;1.80;;;17.30;59.30;;;;;;4978737;28;20465;-91
2023/12/08 06:34:53;;;;;;;3.37;1.97;;;16.90;59.80;;;;;;4973181;28;20176;-91
2023/12/08 06:37:19;;;;;;;2.00;1.80;;;16.70;61.60;;;;;;4977398;28;20178;-91
2023/12/08 06:39:44;;;;;;;2.10;1.90;;;16.40;62.80;;;;;;4974258;28;20261;-91
2023/12/08 06:42:10;;;;;;;2.73;2.20;;;16.20;63.80;;;;;;4975065;28;20213;-91
2023/12/08 06:44:37;;;;;;;2.37;2.07;;;16.00;64.20;;;;;;4976826;28;20174;-91
2023/12/08 06:47:03;;;;;;;2.87;2.10;;;15.60;66.20;;;;;;4969860;28;20182;-90
2023/12/08 06:49:28;;;;;;;2.20;2.00;;;15.40;67.80;;;;;;4981471;28;20420;-92
2023/12/08 06:51:54;;;;;;;3.07;2.50;;;15.20;68.90;;;;;;4972556;28;20195;-93
2023/12/08 06:54:20;;;;;;;3.07;2.33;;;15.00;69.70;;;;;;4981505;28;20635;-92
2023/12/08 06:56:46;;;;;;;3.47;2.30;;;15.00;70.60;;;;;;4968666;28;20183;-90
2023/12/08 06:59:12;;;;;;;2.83;2.30;;;14.90;71.60;;;;;;4979638;28;20249;-91
2023/12/08 07:01:37;;;;;;;3.20;2.10;;;14.80;71.90;;;;;;4967171;28;20204;-91
2023/12/08 07:04:04;;;;;;;5.47;2.30;;;14.80;72.60;;;;;;4982103;28;20207;-91
2023/12/08 07:06:30;;;;;;;4.27;2.43;;;14.80;73.10;;;;;;4970311;28;20272;-90
2023/12/08 07:08:56;;;;;;;6.07;2.70;;;14.70;73.50;;;;;;4973264;28;20211;-91
2023/12/08 07:11:22;;;;;;;5.13;2.60;;;14.60;73.90;;;;;;4987631;28;20190;-91
2023/12/08 07:13:49;;;;;;;3.30;2.30;;;14.60;74.80;;;;;;4983049;28;20432;-90
2023/12/08 07:16:14;;;;;;;3.70;2.40;;;14.50;75.20;;;;;;4955924;28;20290;-90
2023/12/08 07:18:40;;;;;;;6.10;2.50;;;14.50;75.60;;;;;;4974826;28;20493;-92
2023/12/08 07:21:07;;;;;;;3.93;2.60;;;14.40;76.40;;;;;;4982457;28;20251;-91
2023/12/08 07:23:36;;;;;;;4.80;2.63;;;14.50;76.80;;;;;;4982416;28;20187;-91
2023/12/08 07:26:03;;;;;;;5.90;2.50;;;15.80;72.40;;;;;;4974081;28;20458;-91
2023/12/08 07:28:29;;;;;;;8.73;2.77;;;16.80;66.40;;;;;;4971609;28;20176;-91
2023/12/08 07:30:55;;;;;;;4.23;2.77;;;17.90;61.70;;;;;;4978242;28;20224;-90
2023/12/08 07:33:21;;;;;;;4.43;2.63;;;18.40;59.40;;;;;;4986303;28;20190;-90
2023/12/08 07:35:46;;;;;;;5.40;2.33;;;18.70;58.00;;;;;;4974505;28;20167;-91
2023/12/08 07:38:13;;;;;;;3.60;2.37;;;19.10;56.90;;;;;;4986859;28;20188;-91
2023/12/08 07:40:39;;;;;;;6.17;2.60;;;19.50;56.20;;;;;;4976564;28;20174;-91
2023/12/08 07:43:04;;;;;;;7.13;2.60;;;19.60;55.60;;;;;;4987524;28;20482;-91
2023/12/08 07:45:30;;;;;;;5.90;3.03;;;19.60;55.20;;;;;;4979289;28;20329;-90
2023/12/08 07:47:55;;;;;;;6.40;2.83;;;19.50;55.20;;;;;;4965868;28;20172;-91
2023/12/08 07:50:22;;;;;;;4.73;3.30;;;19.40;55.00;;;;;;4977676;28;20512;-91
2023/12/08 07:52:48;;;;;;;3.83;2.80;;;19.30;54.90;;;;;;4967659;28;20771;-91
2023/12/08 07:55:14;;;;;;;5.50;2.87;;;18.90;55.40;;;;;;4974972;28;20179;-91
2023/12/08 07:57:39;;;;;;;3.60;3.20;;;18.60;55.70;;;;;;4969843;28;20523;-90
2023/12/08 08:00:06;;;;;;;4.57;2.97;;;18.20;56.40;;;;;;4974252;28;20173;-90
2023/12/08 08:02:33;;;;;;;5.30;3.10;;;17.90;57.10;;;;;;4970410;28;20589;-91
2023/12/08 08:04:59;;;;;;;6.03;3.63;;;17.60;57.70;;;;;;4970353;28;20163;-91
2023/12/08 08:07:24;;;;;;;4.40;2.90;;;17.20;58.20;;;;;;4974046;28;20240;-90
2023/12/08 08:09:50;;;;;;;12.47;3.23;;;17.00;59.10;;;;;;4969555;28;20720;-90
2023/12/08 08:12:18;;;;;;;3.63;3.20;;;16.70;59.60;;;;;;4978190;28;20192;-91
2023/12/08 08:14:44;;;;;;;5.93;3.33;;;16.50;60.60;;;;;;4969014;28;20212;-91
2023/12/08 08:17:09;;;;;;;4.43;3.20;;;16.30;61.80;;;;;;4979054;28;20208;-90
2023/12/08 08:19:35;;;;;;;5.13;3.60;;;16.10;62.70;;;;;;4969389;28;20179;-91
2023/12/08 08:22:01;;;;;;;4.37;3.37;;;16.00;63.60;;;;;;4978724;28;20458;-91
2023/12/08 08:24:27;;;;;;;5.43;3.00;;;15.80;64.30;;;;;;4968501;28;20237;-90
2023/12/08 08:26:53;;;;;;;5.83;3.33;;;15.70;65.20;;;;;;4979870;28;20167;-91
2023/12/08 08:29:18;;;;;;;6.53;3.40;;;15.60;65.70;;;;;;4967943;28;20240;-90
2023/12/08 08:31:44;;;;;;;5.93;3.10;;;15.50;66.50;;;;;;4976851;28;20178;-90
2023/12/08 08:34:10;;;;;;;4.00;3.20;;;15.50;67.30;;;;;;4966375;28;20590;-90
2023/12/08 08:36:36;;;;;;;5.30;3.33;;;15.30;67.90;;;;;;4977044;28;20465;-90
2023/12/08 08:39:03;;;;;;;4.63;3.43;;;15.30;68.90;;;;;;4969421;28;20550;-90
2023/12/08 08:41:29;;;;;;;5.20;3.30;;;15.20;69.30;;;;;;4970416;28;20598;-90
2023/12/08 08:43:55;;;;;;;4.00;3.50;;;15.00;69.90;;;;;;4977982;28;20378;-90
2023/12/08 08:46:22;;;;;;;5.43;3.77;;;14.80;71.20;;;;;;4978823;28;20248;-90
2023/12/08 08:48:47;;;;;;;5.33;3.97;;;14.80;72.50;;;;;;4964770;28;20449;-90
2023/12/08 08:51:16;;;;;;;5.97;3.87;;;15.40;71.10;;;;;;4967470;28;20436;-90
2023/12/08 08:53:42;;;;;;;9.23;4.17;;;16.20;67.00;;;;;;4972801;28;20449;-90
2023/12/08 08:56:08;;;;;;;7.40;4.03;;;16.90;63.70;;;;;;4965181;28;20178;-90
2023/12/08 08:58:34;;;;;;;4.40;3.90;;;17.50;61.00;;;;;;4975748;28;20183;-90
2023/12/08 09:01:00;;;;;;;5.90;4.00;;;17.70;59.60;;;;;;4964947;28;20178;-90
2023/12/08 09:03:26;;;;;;;7.00;4.10;;;18.10;58.80;;;;;;4975662;28;20163;-90
2023/12/08 09:05:51;;;;;;;5.43;3.80;;;18.60;57.60;;;;;;4967904;28;20200;-90
2023/12/08 09:08:18;;;;;;;4.57;3.60;;;18.90;56.70;;;;;;4981568;28;20176;-90
2023/12/08 09:10:45;;;;;;;4.37;3.40;;;18.80;56.40;;;;;;4985344;28;20207;-90
2023/12/08 09:13:11;;;;;;;4.77;3.90;;;18.70;56.20;;;;;;4978790;28;20268;-90
2023/12/08 09:15:37;;;;;;;6.30;3.83;;;18.60;56.20;;;;;;4964768;28;20270;-90
2023/12/08 09:18:05;;;;;;;7.33;4.00;;;18.30;56.80;;;;;;4970027;28;20359;-92
2023/12/08 09:20:31;;;;;;;5.33;3.67;;;17.90;57.30;;;;;;4986118;28;20195;-93
2023/12/08 09:22:57;;;;;;;5.30;4.03;;;17.50;58.00;;;;;;4981797;28;20204;-91
2023/12/08 09:25:24;;;;;;;4.80;3.93;;;17.20;58.80;;;;;;4985095;28;20583;-92
2023/12/08 09:27:50;;;;;;;6.83;3.80;;;16.90;59.40;;;;;;4987409;28;20649;-92
2023/12/08 09:30:16;;;;;;;6.30;3.50;;;16.60;60.30;;;;;;4986177;28;20180;-91
2023/12/08 09:32:42;;;;;;;5.00;3.63;;;16.40;61.50;;;;;;4986648;28;20185;-90
2023/12/08 09:35:09;;;;;;;4.93;3.80;;;16.20;62.40;;;;;;4985733;28;20403;-92
2023/12/08 09:37:34;;;;;;;5.00;3.50;;;16.20;63.00;;;;;;4982234;28;20279;-91
2023/12/08 09:40:01;;;;;;;5.63;3.60;;;16.10;63.60;;;;;;4974632;28;20203;-92
2023/12/08 09:42:45;;;;;;;4.57;3.53;;;15.90;64.20;;;;;;4982877;28;20215;-91
2023/12/08 09:45:11;;;;;;;7.17;3.50;;;15.80;65.50;;;;;;4973329;28;20358;-91
2023/12/08 09:47:39;;;;;;;7.10;3.60;;;15.70;65.60;;;;;;4984122;28;20180;-91
2023/12/08 09:50:09;;;;;;;6.17;3.97;;;15.60;66.40;;;;;;4973533;28;20402;-92
2023/12/08 09:52:35;;;;;;;5.00;3.30;;;15.50;67.20;;;;;;4985244;28;20163;-92
2023/12/08 09:55:03;;;;;;;4.40;3.47;;;15.30;68.00;;;;;;4977267;28;20261;-91
2023/12/08 09:57:30;;;;;;;4.03;3.37;;;15.20;68.70;;;;;;4966351;28;20473;-92
2023/12/08 10:00:05;;;;;;;5.77;3.53;;;15.10;69.50;;;;;;4975229;28;20175;-92
2023/12/08 10:02:32;;;;;;;6.63;3.60;;;15.00;69.90;;;;;;4962784;28;20246;-92
2023/12/08 10:04:58;;;;;;;5.93;3.67;;;15.00;70.40;;;;;;4975433;28;20600;-92
2023/12/08 10:07:27;;;;;;;7.03;3.70;;;14.90;70.90;;;;;;4962913;28;20173;-92
2023/12/08 10:09:54;;;;;;;5.23;3.60;;;14.80;71.70;;;;;;4971669;28;20223;-92
2023/12/08 10:12:19;;;;;;;3.97;3.40;;;14.80;72.40;;;;;;4963521;28;20392;-91
2023/12/08 10:15:00;;;;;;;4.63;3.13;;;14.80;72.90;;;;;;4966233;28;20740;-92
2023/12/08 10:17:26;;;;;;;6.30;3.60;;;15.60;70.30;;;;;;4981894;28;20398;-91
2023/12/08 10:20:09;;;;;;;5.73;3.20;;;16.20;67.50;;;;;;4980581;28;20175;-91
2023/12/08 10:22:54;;;;;;;5.37;3.43;;;17.00;63.80;;;;;;4995375;28;20200;-91
2023/12/08 10:25:21;;;;;;;4.07;2.93;;;17.40;61.10;;;;;;4981589;28;20170;-92
2023/12/08 10:27:54;;;;;;;4.90;3.00;;;17.90;59.40;;;;;;4966057;28;20352;-92
2023/12/08 10:30:23;;;;;;;5.03;3.00;;;18.30;58.50;;;;;;4968186;28;20580;-92
2023/12/08 10:32:49;;;;;;;7.37;3.20;;;18.60;57.60;;;;;;4980562;28;20198;-92
2023/12/08 10:35:15;;;;;;;5.53;3.30;;;18.50;57.30;;;;;;4977106;28;20261;-92
2023/12/08 10:37:42;;;;;;;4.13;3.20;;;18.30;57.30;;;;;;4980080;28;20176;-92
2023/12/08 10:40:12;;;;;;;4.77;3.00;;;18.20;57.50;;;;;;4979917;28;20279;-92
2023/12/08 10:42:38;;;;;;;4.07;2.97;;;18.00;57.90;;;;;;4976811;28;20201;-92
2023/12/08 10:45:10;;;;;;;8.53;3.20;;;17.70;58.30;;;;;;4981342;28;20594;-92
2023/12/08 10:47:40;;;;;;;3.90;2.60;;;17.40;58.80;;;;;;4974401;28;20181;-92
2023/12/08 10:50:08;;;;;;;7.90;3.07;;;17.10;59.50;;;;;;4981611;28;20438;-92
2023/12/08 10:52:36;;;;;;;6.53;3.10;;;16.90;60.30;;;;;;4971516;28;20176;-91
2023/12/08 10:55:02;;;;;;;4.93;3.03;;;16.60;61.40;;;;;;4981746;28;20273;-92
2023/12/08 10:57:29;;;;;;;4.53;3.03;;;16.40;62.60;;;;;;4981278;28;20580;-92
2023/12/08 11:00:00;;;;;;;5.30;3.00;;;16.20;63.60;;;;;;4979601;28;20377;-92
2023/12/08 11:02:30;;;;;;;6.23;2.90;;;16.10;64.70;;;;;;4971833;28;20485;-93
2023/12/08 11:05:03;;;;;;;6.13;2.83;;;15.90;65.50;;;;;;4966137;28;20571;-92
2023/12/08 11:07:32;;;;;;;5.67;2.80;;;15.80;66.30;;;;;;4982341;28;20172;-92
2023/12/08 11:10:06;;;;;;;4.47;2.97;;;15.80;67.30;;;;;;4981888;28;20177;-92
2023/12/08 11:12:37;;;;;;;5.03;3.10;;;15.60;68.20;;;;;;4979479;28;20202;-92
2023/12/08 11:15:09;;;;;;;4.00;2.83;;;15.50;69.20;;;;;;4987737;28;20178;-92
2023/12/08 11:17:43;;;;;;;4.67;2.90;;;15.40;70.00;;;;;;4985457;28;20331;-92
2023/12/08 11:20:13;;;;;;;5.03;3.10;;;15.30;71.20;;;;;;4988437;28;20171;-92
2023/12/08 11:22:39;;;;;;;5.17;2.73;;;15.20;72.00;;;;;;4983181;28;20287;-92
2023/12/08 11:25:12;;;;;;;6.93;3.33;;;15.10;72.80;;;;;;4966934;28;20643;-92
2023/12/08 11:27:49;;;;;;;5.97;2.90;;;15.10;73.30;;;;;;4979971;28;20173;-92
2023/12/08 11:30:46;;;;;;;3.33;2.83;;;15.00;73.80;;;;;;4970667;28;20175;-92
2023/12/08 11:33:35;;;;;;;4.80;2.90;;;15.00;74.90;;;;;;4976915;28;20293;-92
2023/12/08 11:36:08;;;;;;;3.97;2.57;;;14.90;76.00;;;;;;4964799;28;20554;-92
2023/12/08 11:38:37;;;;;;;4.90;2.63;;;14.80;76.70;;;;;;5001032;28;20172;-92
2023/12/08 11:41:13;;;;;;;3.07;2.43;;;14.80;77.10;;;;;;4984934;28;20568;-92
2023/12/08 11:43:44;;;;;;;3.43;2.53;;;15.20;76.10;;;;;;4982665;28;20178;-92
2023/12/08 11:46:12;;;;;;;5.47;2.90;;;15.70;73.40;;;;;;4986304;28;20616;-91
2023/12/08 11:48:38;;;;;;;3.77;2.40;;;16.10;71.10;;;;;;4973357;28;20171;-92
2023/12/08 11:51:05;;;;;;;3.90;2.80;;;16.50;69.20;;;;;;4985528;28;20174;-92
2023/12/08 11:53:57;;;;;;;5.50;3.00;;;16.90;67.00;;;;;;4974317;28;20288;-92
2023/12/08 11:56:45;;;;;;;5.50;2.80;;;17.50;64.80;;;;;;4989132;28;20179;-91
2023/12/08 11:59:24;;;;;;;4.57;2.50;;;18.00;61.40;;;;;;4979264;28;20456;-92
2023/12/08 12:01:51;;;;;;;4.73;2.40;;;18.20;60.40;;;;;;4968827;28;20202;-92
2023/12/08 12:04:17;;;;;;;6.53;2.50;;;18.10;60.10;;;;;;5002548;28;20584;-92
2023/12/08 12:06:43;;;;;;;5.70;2.53;;;18.00;60.40;;;;;;4985183;28;20189;-92
2023/12/08 12:09:14;;;;;;;4.57;2.70;;;17.70;60.90;;;;;;4983296;28;20166;-92
2023/12/08 12:11:40;;;;;;;4.67;2.40;;;17.50;61.60;;;;;;4988364;28;20180;-92
2023/12/08 12:14:08;;;;;;;5.80;2.47;;;17.30;62.50;;;;;;4982383;28;20327;-92
2023/12/08 12:16:35;;;;;;;6.83;2.97;;;17.00;63.50;;;;;;4983243;28;20180;-92
2023/12/08 12:19:03;;;;;;;3.33;2.40;;;16.80;64.70;;;;;;4975784;28;20179;-92
2023/12/08 12:21:29;;;;;;;8.77;2.47;;;16.50;66.00;;;;;;4983876;28;20203;-91
2023/12/08 12:23:55;;;;;;;8.63;2.67;;;16.30;67.50;;;;;;4977034;28;20342;-92
2023/12/08 12:26:22;;;;;;;4.40;2.50;;;16.10;68.80;;;;;;4981712;28;20425;-92
2023/12/08 12:28:48;;;;;;;4.47;2.67;;;16.00;70.10;;;;;;4978568;28;20174;-91
2023/12/08 12:31:15;;;;;;;3.07;2.40;;;15.90;71.50;;;;;;4983114;28;20332;-92
2023/12/08 12:33:43;;;;;;;4.80;2.60;;;15.80;72.90;;;;;;4981355;28;20254;-92
2023/12/08 12:36:11;;;;;;;6.10;2.43;;;15.60;74.40;;;;;;4974139;28;20302;-92
2023/12/08 12:38:38;;;;;;;6.20;2.70;;;15.50;75.80;;;;;;4979608;28;20170;-92
2023/12/08 12:41:24;;;;;;;7.07;2.93;;;15.40;77.10;;;;;;4982902;28;20567;-91
2023/12/08 12:44:01;;;;;;;4.07;2.20;;;15.40;77.80;;;;;;4981743;28;20204;-92
2023/12/08 12:46:27;;;;;;;5.60;2.60;;;15.30;78.50;;;;;;4981743;28;20180;-92
2023/12/08 12:48:54;;;;;;;7.10;2.67;;;15.30;78.90;;;;;;4985345;28;20551;-93